Las Vegas, NV (89154)

5:07 PM PDT on September 02, 2015 (GMT -0700)
Wishing Well Estates | | Change Station
CLOSE
Current Station
Personal Weather Station
Location: Las Vegas, NV
Elevation: 2083 ft
Nearby Weather Stations

Elev 2083 ft 36.05 °N, 115.13 °W | Updated 13 minutes ago

Scattered Clouds
Scattered Clouds
98.6 °F
Feels Like 95 °F
N
8.3
Wind Variable Wind from South

Today
High -- | Low -- °F
--% Chance of Precip.
Yesterday
High -- | Low -- °F
Precip. -- in
6:12 AM 7:07 PM
Waning Gibbous, 76% visible
Pressure 29.67 in
Visibility 10.0 miles
Clouds Few 12000 ft
Scattered Clouds 25000 ft
Heat Index 95 °F
Dew Point 46 °F
Humidity 17%
Rainfall 0.02 in
Snow Depth Not available.
UV 2 out of 12
Pollen 7.20 out of 12
Air Quality Not available.
Flu Activity Not available.
METAR KLAS 022356Z 18012G20KT 10SM FEW120 SCT250 37/04 A2976 RMK AO2 SLP045 ACSL N AND NW T03720039 10383 20328 56021
Pressure 29.67 in
Visibility 10.0 miles
Clouds Few 12000 ft
Scattered Clouds 25000 ft
Heat Index 95 °F
Dew Point 46 °F
Humidity 17%
Rainfall 0.02 in
Snow Depth Not available.
UV 2 out of 12
Pollen 7.20 out of 12
Air Quality Not available.
Flu Activity Not available.
METAR KLAS 022356Z 18012G20KT 10SM FEW120 SCT250 37/04 A2976 RMK AO2 SLP045 ACSL N AND NW T03720039 10383 20328 56021

10-Day Weather Forecast

×

Almanac

Astronomy

Sep. 02, 2015 Rise Set
Actual Time
Civil Twilight
Nautical Twilight
Astronomical Twilight
Moon
Length of Visible Light
Length of Day
Tomorrow will be .
, % of the Moon is Illuminated

Today's Extremes

State Highs State Lows

Community

WunderPhotos

Upload Photos

1,851,846 photos uploaded!

WunderBlogs® & News

Nearby

Air Quality

  Air Quality AQ Index Pollutant
Not available.

Snow Depth

Station Depth Elevation

Earthquake Activity

City Distance Mag. Time & Date
Minimum magnitude displayed is 2.5.

Coastal Water Temperatures

Place Temperature

Stations

Nearby Weather Stations

Station Location Temp. Windchill Dew Point Humidity Wind Precip. Elev Updated Type